sensor_id;sensor_type;location;lat;lon;timestamp;P1;durP1;ratioP1;P2;durP2;ratioP2
41687;SDS011;27371;42.686;23.362;2023-02-13T00:02:21;67.72;;;38.15;;
41687;SDS011;27371;42.686;23.362;2023-02-13T00:04:46;69.47;;;38.67;;
41687;SDS011;27371;42.686;23.362;2023-02-13T00:07:12;66.13;;;36.95;;
41687;SDS011;27371;42.686;23.362;2023-02-13T00:09:38;66.72;;;37.35;;
41687;SDS011;27371;42.686;23.362;2023-02-13T00:12:05;69.88;;;37.75;;
41687;SDS011;27371;42.686;23.362;2023-02-13T00:14:35;62.85;;;36.30;;
41687;SDS011;27371;42.686;23.362;2023-02-13T00:17:02;65.10;;;36.35;;
41687;SDS011;27371;42.686;23.362;2023-02-13T00:19:28;62.90;;;36.28;;
41687;SDS011;27371;42.686;23.362;2023-02-13T00:21:53;66.07;;;37.83;;
41687;SDS011;27371;42.686;23.362;2023-02-13T00:24:19;68.72;;;38.13;;
41687;SDS011;27371;42.686;23.362;2023-02-13T00:26:44;65.75;;;37.13;;
41687;SDS011;27371;42.686;23.362;2023-02-13T00:29:10;60.80;;;36.15;;
41687;SDS011;27371;42.686;23.362;2023-02-13T00:31:35;66.35;;;36.70;;
41687;SDS011;27371;42.686;23.362;2023-02-13T00:34:01;64.07;;;35.65;;
41687;SDS011;27371;42.686;23.362;2023-02-13T00:36:26;63.17;;;36.65;;
41687;SDS011;27371;42.686;23.362;2023-02-13T00:38:52;64.65;;;35.78;;
41687;SDS011;27371;42.686;23.362;2023-02-13T00:41:19;61.78;;;36.15;;
41687;SDS011;27371;42.686;23.362;2023-02-13T00:43:45;63.85;;;36.33;;
41687;SDS011;27371;42.686;23.362;2023-02-13T00:46:11;60.05;;;35.38;;
41687;SDS011;27371;42.686;23.362;2023-02-13T00:48:36;62.03;;;34.85;;
41687;SDS011;27371;42.686;23.362;2023-02-13T00:51:02;63.85;;;37.17;;
41687;SDS011;27371;42.686;23.362;2023-02-13T00:53:28;64.47;;;35.65;;
41687;SDS011;27371;42.686;23.362;2023-02-13T00:55:54;63.53;;;36.90;;
41687;SDS011;27371;42.686;23.362;2023-02-13T00:58:19;65.80;;;37.08;;
41687;SDS011;27371;42.686;23.362;2023-02-13T01:03:21;63.80;;;37.47;;
41687;SDS011;27371;42.686;23.362;2023-02-13T01:05:47;68.63;;;38.70;;
41687;SDS011;27371;42.686;23.362;2023-02-13T01:08:14;65.50;;;37.10;;
41687;SDS011;27371;42.686;23.362;2023-02-13T01:10:41;62.25;;;35.88;;
41687;SDS011;27371;42.686;23.362;2023-02-13T01:13:07;64.28;;;36.45;;
41687;SDS011;27371;42.686;23.362;2023-02-13T01:15:34;65.38;;;34.47;;
41687;SDS011;27371;42.686;23.362;2023-02-13T01:18:00;58.53;;;34.33;;
41687;SDS011;27371;42.686;23.362;2023-02-13T01:20:27;60.97;;;35.30;;
41687;SDS011;27371;42.686;23.362;2023-02-13T01:22:53;62.38;;;36.13;;
41687;SDS011;27371;42.686;23.362;2023-02-13T01:25:20;61.30;;;34.53;;
41687;SDS011;27371;42.686;23.362;2023-02-13T01:27:45;61.95;;;36.08;;
41687;SDS011;27371;42.686;23.362;2023-02-13T01:30:11;66.07;;;35.65;;
41687;SDS011;27371;42.686;23.362;2023-02-13T01:32:39;63.88;;;36.30;;
41687;SDS011;27371;42.686;23.362;2023-02-13T01:35:05;63.30;;;36.55;;
41687;SDS011;27371;42.686;23.362;2023-02-13T01:37:31;61.97;;;36.20;;
41687;SDS011;27371;42.686;23.362;2023-02-13T01:39:57;62.20;;;35.83;;
41687;SDS011;27371;42.686;23.362;2023-02-13T01:42:24;63.30;;;36.88;;
41687;SDS011;27371;42.686;23.362;2023-02-13T01:44:53;60.85;;;36.03;;
41687;SDS011;27371;42.686;23.362;2023-02-13T01:47:43;70.07;;;39.63;;
41687;SDS011;27371;42.686;23.362;2023-02-13T01:52:39;70.68;;;38.75;;
41687;SDS011;27371;42.686;23.362;2023-02-13T01:55:08;75.18;;;39.38;;
41687;SDS011;27371;42.686;23.362;2023-02-13T01:57:35;69.03;;;38.60;;
41687;SDS011;27371;42.686;23.362;2023-02-13T02:00:08;67.97;;;39.50;;
41687;SDS011;27371;42.686;23.362;2023-02-13T02:02:38;73.30;;;40.65;;
41687;SDS011;27371;42.686;23.362;2023-02-13T02:05:09;65.95;;;37.45;;
41687;SDS011;27371;42.686;23.362;2023-02-13T02:07:36;62.58;;;35.05;;
41687;SDS011;27371;42.686;23.362;2023-02-13T02:10:06;60.72;;;35.38;;
41687;SDS011;27371;42.686;23.362;2023-02-13T02:12:49;63.25;;;35.15;;
41687;SDS011;27371;42.686;23.362;2023-02-13T02:15:36;62.53;;;36.78;;
41687;SDS011;27371;42.686;23.362;2023-02-13T02:18:05;61.75;;;35.67;;
41687;SDS011;27371;42.686;23.362;2023-02-13T02:20:44;63.47;;;35.05;;
41687;SDS011;27371;42.686;23.362;2023-02-13T02:26:20;64.30;;;34.60;;
41687;SDS011;27371;42.686;23.362;2023-02-13T02:46:17;62.50;;;33.22;;
41687;SDS011;27371;42.686;23.362;2023-02-13T02:49:03;58.58;;;34.80;;
41687;SDS011;27371;42.686;23.362;2023-02-13T02:52:06;58.10;;;33.60;;
41687;SDS011;27371;42.686;23.362;2023-02-13T02:54:47;61.45;;;35.20;;
41687;SDS011;27371;42.686;23.362;2023-02-13T02:57:31;61.90;;;34.35;;
41687;SDS011;27371;42.686;23.362;2023-02-13T03:00:23;58.63;;;33.58;;
41687;SDS011;27371;42.686;23.362;2023-02-13T03:03:14;58.80;;;34.67;;
41687;SDS011;27371;42.686;23.362;2023-02-13T03:06:02;66.68;;;38.33;;
41687;SDS011;27371;42.686;23.362;2023-02-13T03:08:35;111.93;;;60.15;;
41687;SDS011;27371;42.686;23.362;2023-02-13T03:11:21;113.15;;;59.28;;
41687;SDS011;27371;42.686;23.362;2023-02-13T03:14:06;112.28;;;57.95;;
41687;SDS011;27371;42.686;23.362;2023-02-13T03:16:35;100.82;;;52.75;;
41687;SDS011;27371;42.686;23.362;2023-02-13T03:22:22;92.57;;;50.15;;
41687;SDS011;27371;42.686;23.362;2023-02-13T03:25:04;98.18;;;51.28;;
41687;SDS011;27371;42.686;23.362;2023-02-13T03:30:54;107.45;;;55.88;;
41687;SDS011;27371;42.686;23.362;2023-02-13T03:36:08;95.70;;;54.03;;
41687;SDS011;27371;42.686;23.362;2023-02-13T03:39:11;98.18;;;52.55;;
41687;SDS011;27371;42.686;23.362;2023-02-13T03:41:56;98.50;;;52.88;;
41687;SDS011;27371;42.686;23.362;2023-02-13T03:44:27;87.97;;;50.00;;
41687;SDS011;27371;42.686;23.362;2023-02-13T03:46:55;88.97;;;48.40;;
41687;SDS011;27371;42.686;23.362;2023-02-13T03:49:32;86.72;;;47.67;;
41687;SDS011;27371;42.686;23.362;2023-02-13T03:52:24;84.00;;;46.70;;
41687;SDS011;27371;42.686;23.362;2023-02-13T03:54:58;89.75;;;48.55;;
41687;SDS011;27371;42.686;23.362;2023-02-13T03:57:46;85.47;;;47.05;;
41687;SDS011;27371;42.686;23.362;2023-02-13T04:00:34;92.30;;;47.88;;
41687;SDS011;27371;42.686;23.362;2023-02-13T04:05:55;84.72;;;44.03;;
41687;SDS011;27371;42.686;23.362;2023-02-13T04:08:26;75.57;;;42.67;;
41687;SDS011;27371;42.686;23.362;2023-02-13T04:10:53;77.53;;;40.30;;
41687;SDS011;27371;42.686;23.362;2023-02-13T04:13:52;79.13;;;39.00;;
41687;SDS011;27371;42.686;23.362;2023-02-13T04:16:43;77.82;;;40.47;;
41687;SDS011;27371;42.686;23.362;2023-02-13T04:19:09;72.05;;;38.63;;
41687;SDS011;27371;42.686;23.362;2023-02-13T04:21:36;74.07;;;39.30;;
41687;SDS011;27371;42.686;23.362;2023-02-13T04:24:04;68.63;;;39.25;;
41687;SDS011;27371;42.686;23.362;2023-02-13T04:26:40;75.88;;;41.20;;
41687;SDS011;27371;42.686;23.362;2023-02-13T04:29:07;76.38;;;40.45;;
41687;SDS011;27371;42.686;23.362;2023-02-13T04:31:33;74.68;;;43.10;;
41687;SDS011;27371;42.686;23.362;2023-02-13T04:33:59;72.65;;;40.00;;
41687;SDS011;27371;42.686;23.362;2023-02-13T04:36:25;75.32;;;42.53;;
41687;SDS011;27371;42.686;23.362;2023-02-13T04:38:50;79.82;;;44.85;;
41687;SDS011;27371;42.686;23.362;2023-02-13T04:41:16;71.60;;;41.50;;
41687;SDS011;27371;42.686;23.362;2023-02-13T04:43:42;73.65;;;40.63;;
41687;SDS011;27371;42.686;23.362;2023-02-13T04:46:07;73.22;;;40.63;;
41687;SDS011;27371;42.686;23.362;2023-02-13T04:48:33;65.88;;;38.03;;
41687;SDS011;27371;42.686;23.362;2023-02-13T04:50:58;72.40;;;39.10;;
41687;SDS011;27371;42.686;23.362;2023-02-13T04:53:24;75.38;;;43.13;;
41687;SDS011;27371;42.686;23.362;2023-02-13T04:55:50;78.43;;;43.22;;
41687;SDS011;27371;42.686;23.362;2023-02-13T04:58:16;74.18;;;43.67;;
41687;SDS011;27371;42.686;23.362;2023-02-13T05:00:42;72.80;;;41.30;;
41687;SDS011;27371;42.686;23.362;2023-02-13T05:03:09;73.13;;;40.42;;
41687;SDS011;27371;42.686;23.362;2023-02-13T05:05:36;71.80;;;39.78;;
41687;SDS011;27371;42.686;23.362;2023-02-13T05:08:02;73.50;;;41.35;;
41687;SDS011;27371;42.686;23.362;2023-02-13T05:10:28;71.03;;;38.95;;
41687;SDS011;27371;42.686;23.362;2023-02-13T05:12:54;64.63;;;36.97;;
41687;SDS011;27371;42.686;23.362;2023-02-13T05:15:19;66.45;;;37.80;;
41687;SDS011;27371;42.686;23.362;2023-02-13T05:17:46;64.50;;;36.88;;
41687;SDS011;27371;42.686;23.362;2023-02-13T05:20:12;66.10;;;37.95;;
41687;SDS011;27371;42.686;23.362;2023-02-13T05:22:44;67.00;;;38.30;;
41687;SDS011;27371;42.686;23.362;2023-02-13T05:25:29;65.05;;;37.55;;
41687;SDS011;27371;42.686;23.362;2023-02-13T05:27:55;67.15;;;38.28;;
41687;SDS011;27371;42.686;23.362;2023-02-13T05:30:21;68.28;;;39.35;;
41687;SDS011;27371;42.686;23.362;2023-02-13T05:32:46;65.65;;;37.22;;
41687;SDS011;27371;42.686;23.362;2023-02-13T05:35:14;64.40;;;37.72;;
41687;SDS011;27371;42.686;23.362;2023-02-13T05:37:40;70.53;;;40.17;;
41687;SDS011;27371;42.686;23.362;2023-02-13T05:40:06;70.00;;;40.92;;
41687;SDS011;27371;42.686;23.362;2023-02-13T05:42:31;71.88;;;39.15;;
41687;SDS011;27371;42.686;23.362;2023-02-13T05:44:57;75.25;;;41.35;;
41687;SDS011;27371;42.686;23.362;2023-02-13T05:47:22;75.13;;;42.45;;
41687;SDS011;27371;42.686;23.362;2023-02-13T05:49:48;68.97;;;41.38;;
41687;SDS011;27371;42.686;23.362;2023-02-13T05:52:14;79.13;;;43.95;;
41687;SDS011;27371;42.686;23.362;2023-02-13T05:54:40;79.15;;;43.78;;
41687;SDS011;27371;42.686;23.362;2023-02-13T05:57:05;78.13;;;42.95;;
41687;SDS011;27371;42.686;23.362;2023-02-13T05:59:31;75.13;;;41.85;;
41687;SDS011;27371;42.686;23.362;2023-02-13T06:01:56;75.18;;;42.63;;
41687;SDS011;27371;42.686;23.362;2023-02-13T06:04:21;76.30;;;42.53;;
41687;SDS011;27371;42.686;23.362;2023-02-13T06:06:47;77.85;;;42.50;;
41687;SDS011;27371;42.686;23.362;2023-02-13T06:09:12;74.70;;;40.72;;
41687;SDS011;27371;42.686;23.362;2023-02-13T06:11:38;67.47;;;38.67;;
41687;SDS011;27371;42.686;23.362;2023-02-13T06:14:03;76.25;;;41.67;;
41687;SDS011;27371;42.686;23.362;2023-02-13T06:16:29;68.10;;;38.38;;
41687;SDS011;27371;42.686;23.362;2023-02-13T06:18:58;85.05;;;43.22;;
41687;SDS011;27371;42.686;23.362;2023-02-13T06:21:24;74.18;;;41.63;;
41687;SDS011;27371;42.686;23.362;2023-02-13T06:23:50;70.95;;;42.15;;
41687;SDS011;27371;42.686;23.362;2023-02-13T06:26:23;70.05;;;38.35;;
41687;SDS011;27371;42.686;23.362;2023-02-13T06:28:49;69.70;;;37.85;;
41687;SDS011;27371;42.686;23.362;2023-02-13T06:31:16;77.72;;;41.33;;
41687;SDS011;27371;42.686;23.362;2023-02-13T06:33:42;73.35;;;40.83;;
41687;SDS011;27371;42.686;23.362;2023-02-13T06:36:07;71.70;;;40.05;;
41687;SDS011;27371;42.686;23.362;2023-02-13T06:38:33;68.35;;;38.28;;
41687;SDS011;27371;42.686;23.362;2023-02-13T06:40:59;70.47;;;37.97;;
41687;SDS011;27371;42.686;23.362;2023-02-13T06:43:28;69.00;;;37.42;;
41687;SDS011;27371;42.686;23.362;2023-02-13T06:45:54;67.47;;;36.78;;
41687;SDS011;27371;42.686;23.362;2023-02-13T06:48:20;83.22;;;41.47;;
41687;SDS011;27371;42.686;23.362;2023-02-13T06:50:45;70.15;;;39.42;;
41687;SDS011;27371;42.686;23.362;2023-02-13T06:53:10;75.93;;;39.80;;
41687;SDS011;27371;42.686;23.362;2023-02-13T06:55:36;68.80;;;36.92;;
41687;SDS011;27371;42.686;23.362;2023-02-13T06:58:03;64.97;;;35.85;;
41687;SDS011;27371;42.686;23.362;2023-02-13T07:00:29;67.75;;;37.40;;
41687;SDS011;27371;42.686;23.362;2023-02-13T07:02:59;64.05;;;36.22;;
41687;SDS011;27371;42.686;23.362;2023-02-13T07:05:26;63.55;;;34.50;;
41687;SDS011;27371;42.686;23.362;2023-02-13T07:07:52;72.15;;;38.90;;
41687;SDS011;27371;42.686;23.362;2023-02-13T07:10:23;65.25;;;36.47;;
41687;SDS011;27371;42.686;23.362;2023-02-13T07:12:48;63.60;;;35.15;;
41687;SDS011;27371;42.686;23.362;2023-02-13T07:15:19;63.90;;;35.13;;
41687;SDS011;27371;42.686;23.362;2023-02-13T07:17:57;70.03;;;39.15;;
41687;SDS011;27371;42.686;23.362;2023-02-13T07:20:23;75.25;;;41.33;;
41687;SDS011;27371;42.686;23.362;2023-02-13T07:22:50;84.40;;;49.85;;
41687;SDS011;27371;42.686;23.362;2023-02-13T07:25:16;88.60;;;49.28;;
41687;SDS011;27371;42.686;23.362;2023-02-13T07:27:45;84.65;;;47.20;;
41687;SDS011;27371;42.686;23.362;2023-02-13T07:30:10;84.72;;;46.95;;
41687;SDS011;27371;42.686;23.362;2023-02-13T07:32:36;79.35;;;42.85;;
41687;SDS011;27371;42.686;23.362;2023-02-13T07:35:01;74.20;;;42.60;;
41687;SDS011;27371;42.686;23.362;2023-02-13T07:37:28;81.40;;;46.45;;
41687;SDS011;27371;42.686;23.362;2023-02-13T07:39:54;81.22;;;44.10;;
41687;SDS011;27371;42.686;23.362;2023-02-13T07:42:20;76.10;;;42.13;;
41687;SDS011;27371;42.686;23.362;2023-02-13T07:44:51;71.43;;;39.78;;
41687;SDS011;27371;42.686;23.362;2023-02-13T07:47:17;65.10;;;38.63;;
41687;SDS011;27371;42.686;23.362;2023-02-13T07:50:00;66.93;;;36.63;;
41687;SDS011;27371;42.686;23.362;2023-02-13T07:52:27;69.72;;;37.13;;
41687;SDS011;27371;42.686;23.362;2023-02-13T07:54:52;68.50;;;37.35;;
41687;SDS011;27371;42.686;23.362;2023-02-13T07:57:18;72.93;;;39.97;;
41687;SDS011;27371;42.686;23.362;2023-02-13T07:59:44;71.60;;;40.53;;
41687;SDS011;27371;42.686;23.362;2023-02-13T08:02:12;69.72;;;40.25;;
41687;SDS011;27371;42.686;23.362;2023-02-13T08:04:41;68.28;;;38.30;;
41687;SDS011;27371;42.686;23.362;2023-02-13T08:07:10;68.25;;;39.88;;
41687;SDS011;27371;42.686;23.362;2023-02-13T08:09:36;69.20;;;40.05;;
41687;SDS011;27371;42.686;23.362;2023-02-13T08:12:20;66.30;;;37.15;;
41687;SDS011;27371;42.686;23.362;2023-02-13T08:14:45;67.20;;;38.67;;
41687;SDS011;27371;42.686;23.362;2023-02-13T08:17:11;68.00;;;38.65;;
41687;SDS011;27371;42.686;23.362;2023-02-13T08:19:36;67.45;;;37.38;;
41687;SDS011;27371;42.686;23.362;2023-02-13T08:22:02;70.82;;;39.40;;
41687;SDS011;27371;42.686;23.362;2023-02-13T08:24:28;67.35;;;37.97;;
41687;SDS011;27371;42.686;23.362;2023-02-13T08:26:56;69.72;;;40.50;;
41687;SDS011;27371;42.686;23.362;2023-02-13T08:29:22;70.57;;;41.20;;
41687;SDS011;27371;42.686;23.362;2023-02-13T08:31:49;72.93;;;40.88;;
41687;SDS011;27371;42.686;23.362;2023-02-13T08:34:14;67.85;;;40.10;;
41687;SDS011;27371;42.686;23.362;2023-02-13T08:36:40;69.75;;;40.63;;
41687;SDS011;27371;42.686;23.362;2023-02-13T08:39:05;74.53;;;42.10;;
41687;SDS011;27371;42.686;23.362;2023-02-13T08:41:31;69.88;;;40.65;;
41687;SDS011;27371;42.686;23.362;2023-02-13T08:43:56;68.60;;;40.78;;
41687;SDS011;27371;42.686;23.362;2023-02-13T08:46:22;64.55;;;39.30;;
41687;SDS011;27371;42.686;23.362;2023-02-13T08:48:47;66.80;;;39.13;;
41687;SDS011;27371;42.686;23.362;2023-02-13T08:51:13;62.83;;;37.80;;
41687;SDS011;27371;42.686;23.362;2023-02-13T08:53:38;66.18;;;40.10;;
41687;SDS011;27371;42.686;23.362;2023-02-13T08:56:04;68.47;;;40.33;;
41687;SDS011;27371;42.686;23.362;2023-02-13T08:58:30;68.03;;;38.85;;
41687;SDS011;27371;42.686;23.362;2023-02-13T09:00:56;67.47;;;37.92;;
41687;SDS011;27371;42.686;23.362;2023-02-13T09:03:22;66.25;;;39.28;;
41687;SDS011;27371;42.686;23.362;2023-02-13T09:05:48;64.78;;;38.60;;
41687;SDS011;27371;42.686;23.362;2023-02-13T09:08:14;63.22;;;38.08;;
41687;SDS011;27371;42.686;23.362;2023-02-13T09:10:40;61.80;;;36.70;;
41687;SDS011;27371;42.686;23.362;2023-02-13T09:13:08;62.17;;;37.50;;
41687;SDS011;27371;42.686;23.362;2023-02-13T09:15:36;58.17;;;37.10;;
41687;SDS011;27371;42.686;23.362;2023-02-13T09:18:03;58.22;;;34.95;;
41687;SDS011;27371;42.686;23.362;2023-02-13T09:20:28;58.72;;;35.80;;
41687;SDS011;27371;42.686;23.362;2023-02-13T09:22:54;58.47;;;35.72;;
41687;SDS011;27371;42.686;23.362;2023-02-13T09:25:20;57.72;;;36.08;;
41687;SDS011;27371;42.686;23.362;2023-02-13T09:27:47;59.25;;;34.83;;
41687;SDS011;27371;42.686;23.362;2023-02-13T09:30:12;57.20;;;34.50;;
41687;SDS011;27371;42.686;23.362;2023-02-13T09:32:46;61.75;;;35.00;;
41687;SDS011;27371;42.686;23.362;2023-02-13T09:35:12;59.85;;;35.42;;
41687;SDS011;27371;42.686;23.362;2023-02-13T09:37:39;56.17;;;34.63;;
41687;SDS011;27371;42.686;23.362;2023-02-13T09:40:05;61.78;;;36.45;;
41687;SDS011;27371;42.686;23.362;2023-02-13T09:42:40;58.00;;;35.40;;
41687;SDS011;27371;42.686;23.362;2023-02-13T09:45:09;56.92;;;35.80;;
41687;SDS011;27371;42.686;23.362;2023-02-13T09:47:38;58.85;;;36.47;;
41687;SDS011;27371;42.686;23.362;2023-02-13T09:50:10;56.38;;;35.30;;
41687;SDS011;27371;42.686;23.362;2023-02-13T09:52:38;60.20;;;35.20;;
41687;SDS011;27371;42.686;23.362;2023-02-13T09:55:14;61.08;;;36.42;;
41687;SDS011;27371;42.686;23.362;2023-02-13T10:00:32;54.17;;;35.63;;
41687;SDS011;27371;42.686;23.362;2023-02-13T10:16:37;58.45;;;36.08;;
41687;SDS011;27371;42.686;23.362;2023-02-13T10:19:05;63.28;;;37.42;;
41687;SDS011;27371;42.686;23.362;2023-02-13T10:21:58;53.90;;;34.08;;
41687;SDS011;27371;42.686;23.362;2023-02-13T10:24:30;54.35;;;32.97;;
41687;SDS011;27371;42.686;23.362;2023-02-13T10:27:03;52.60;;;33.92;;
41687;SDS011;27371;42.686;23.362;2023-02-13T10:29:50;53.40;;;32.78;;
41687;SDS011;27371;42.686;23.362;2023-02-13T10:35:39;53.33;;;33.83;;
41687;SDS011;27371;42.686;23.362;2023-02-13T10:38:26;53.85;;;31.33;;
41687;SDS011;27371;42.686;23.362;2023-02-13T10:58:21;51.63;;;30.52;;
41687;SDS011;27371;42.686;23.362;2023-02-13T11:01:12;47.60;;;32.13;;
41687;SDS011;27371;42.686;23.362;2023-02-13T11:03:45;52.20;;;31.45;;
41687;SDS011;27371;42.686;23.362;2023-02-13T11:06:13;48.88;;;31.52;;
41687;SDS011;27371;42.686;23.362;2023-02-13T11:08:43;50.65;;;31.95;;
41687;SDS011;27371;42.686;23.362;2023-02-13T11:11:53;52.20;;;32.58;;
41687;SDS011;27371;42.686;23.362;2023-02-13T11:14:17;47.28;;;28.23;;
41687;SDS011;27371;42.686;23.362;2023-02-13T11:19:20;42.85;;;27.60;;
41687;SDS011;27371;42.686;23.362;2023-02-13T11:21:47;44.42;;;28.67;;
41687;SDS011;27371;42.686;23.362;2023-02-13T11:24:19;45.30;;;28.58;;
41687;SDS011;27371;42.686;23.362;2023-02-13T11:27:00;46.30;;;29.33;;
41687;SDS011;27371;42.686;23.362;2023-02-13T11:29:33;48.47;;;27.30;;
41687;SDS011;27371;42.686;23.362;2023-02-13T11:32:04;42.65;;;27.08;;
41687;SDS011;27371;42.686;23.362;2023-02-13T11:34:30;41.17;;;26.10;;
41687;SDS011;27371;42.686;23.362;2023-02-13T11:39:38;38.50;;;24.73;;
41687;SDS011;27371;42.686;23.362;2023-02-13T11:42:40;41.70;;;25.75;;
41687;SDS011;27371;42.686;23.362;2023-02-13T11:45:00;39.17;;;26.08;;
41687;SDS011;27371;42.686;23.362;2023-02-13T11:50:01;35.28;;;22.52;;
41687;SDS011;27371;42.686;23.362;2023-02-13T11:52:29;33.88;;;22.42;;
41687;SDS011;27371;42.686;23.362;2023-02-13T11:54:58;37.92;;;22.92;;
41687;SDS011;27371;42.686;23.362;2023-02-13T11:59:59;32.40;;;19.65;;
41687;SDS011;27371;42.686;23.362;2023-02-13T12:02:29;30.35;;;19.95;;
41687;SDS011;27371;42.686;23.362;2023-02-13T12:05:20;32.05;;;20.02;;
41687;SDS011;27371;42.686;23.362;2023-02-13T12:07:47;28.88;;;17.58;;
41687;SDS011;27371;42.686;23.362;2023-02-13T12:12:56;29.50;;;19.05;;
41687;SDS011;27371;42.686;23.362;2023-02-13T12:15:40;26.58;;;16.30;;
41687;SDS011;27371;42.686;23.362;2023-02-13T13:08:42;14.20;;;9.80;;
41687;SDS011;27371;42.686;23.362;2023-02-13T13:11:41;20.25;;;10.40;;
41687;SDS011;27371;42.686;23.362;2023-02-13T13:20:06;16.67;;;10.40;;
41687;SDS011;27371;42.686;23.362;2023-02-13T13:22:56;21.42;;;11.70;;
41687;SDS011;27371;42.686;23.362;2023-02-13T13:25:31;18.38;;;11.20;;
41687;SDS011;27371;42.686;23.362;2023-02-13T13:28:13;17.17;;;11.60;;
41687;SDS011;27371;42.686;23.362;2023-02-13T13:30:43;17.38;;;11.65;;
41687;SDS011;27371;42.686;23.362;2023-02-13T13:35:41;19.83;;;12.05;;
41687;SDS011;27371;42.686;23.362;2023-02-13T13:40:58;19.60;;;11.35;;
41687;SDS011;27371;42.686;23.362;2023-02-13T13:46:09;15.68;;;10.43;;
41687;SDS011;27371;42.686;23.362;2023-02-13T13:51:34;21.33;;;11.88;;
41687;SDS011;27371;42.686;23.362;2023-02-13T13:59:19;15.88;;;10.73;;
41687;SDS011;27371;42.686;23.362;2023-02-13T14:08:48;16.67;;;11.35;;
41687;SDS011;27371;42.686;23.362;2023-02-13T14:13:31;17.48;;;11.35;;
41687;SDS011;27371;42.686;23.362;2023-02-13T14:16:10;18.70;;;11.70;;
41687;SDS011;27371;42.686;23.362;2023-02-13T14:18:36;18.48;;;11.48;;
41687;SDS011;27371;42.686;23.362;2023-02-13T14:21:03;17.40;;;12.15;;
41687;SDS011;27371;42.686;23.362;2023-02-13T14:23:37;18.20;;;11.32;;
41687;SDS011;27371;42.686;23.362;2023-02-13T14:33:55;21.23;;;12.25;;
41687;SDS011;27371;42.686;23.362;2023-02-13T14:36:25;20.15;;;12.80;;
41687;SDS011;27371;42.686;23.362;2023-02-13T14:38:58;23.20;;;13.15;;
41687;SDS011;27371;42.686;23.362;2023-02-13T14:47:21;17.38;;;12.15;;
41687;SDS011;27371;42.686;23.362;2023-02-13T14:49:52;19.80;;;12.30;;
41687;SDS011;27371;42.686;23.362;2023-02-13T14:52:20;18.27;;;11.93;;
41687;SDS011;27371;42.686;23.362;2023-02-13T14:54:55;21.30;;;13.27;;
41687;SDS011;27371;42.686;23.362;2023-02-13T14:57:42;21.42;;;12.85;;
41687;SDS011;27371;42.686;23.362;2023-02-13T15:00:58;19.85;;;12.68;;
41687;SDS011;27371;42.686;23.362;2023-02-13T15:05:53;17.45;;;12.10;;
41687;SDS011;27371;42.686;23.362;2023-02-13T15:08:23;19.30;;;12.05;;
41687;SDS011;27371;42.686;23.362;2023-02-13T15:10:53;16.38;;;10.93;;
41687;SDS011;27371;42.686;23.362;2023-02-13T15:13:21;20.13;;;12.68;;
41687;SDS011;27371;42.686;23.362;2023-02-13T15:18:36;24.38;;;12.15;;
41687;SDS011;27371;42.686;23.362;2023-02-13T15:21:04;20.15;;;12.32;;
41687;SDS011;27371;42.686;23.362;2023-02-13T15:23:30;16.67;;;11.88;;
41687;SDS011;27371;42.686;23.362;2023-02-13T15:26:02;20.15;;;11.40;;
41687;SDS011;27371;42.686;23.362;2023-02-13T15:28:30;16.67;;;10.95;;
41687;SDS011;27371;42.686;23.362;2023-02-13T15:30:58;18.70;;;11.55;;
41687;SDS011;27371;42.686;23.362;2023-02-13T15:33:28;20.20;;;11.80;;
41687;SDS011;27371;42.686;23.362;2023-02-13T15:35:59;22.00;;;12.18;;
41687;SDS011;27371;42.686;23.362;2023-02-13T15:38:27;20.67;;;12.95;;
41687;SDS011;27371;42.686;23.362;2023-02-13T15:41:20;17.60;;;12.15;;
41687;SDS011;27371;42.686;23.362;2023-02-13T15:43:48;17.98;;;11.43;;
41687;SDS011;27371;42.686;23.362;2023-02-13T15:46:27;20.77;;;12.68;;
41687;SDS011;27371;42.686;23.362;2023-02-13T15:48:55;21.20;;;13.00;;
41687;SDS011;27371;42.686;23.362;2023-02-13T15:51:24;18.52;;;11.68;;
41687;SDS011;27371;42.686;23.362;2023-02-13T15:53:52;23.20;;;13.10;;
41687;SDS011;27371;42.686;23.362;2023-02-13T15:56:40;20.10;;;12.68;;
41687;SDS011;27371;42.686;23.362;2023-02-13T15:59:09;18.80;;;12.50;;
41687;SDS011;27371;42.686;23.362;2023-02-13T16:01:36;21.60;;;13.07;;
41687;SDS011;27371;42.686;23.362;2023-02-13T16:04:04;19.90;;;12.65;;
41687;SDS011;27371;42.686;23.362;2023-02-13T16:06:33;30.30;;;14.45;;
41687;SDS011;27371;42.686;23.362;2023-02-13T16:09:00;19.27;;;12.38;;
41687;SDS011;27371;42.686;23.362;2023-02-13T16:14:18;20.35;;;13.60;;
41687;SDS011;27371;42.686;23.362;2023-02-13T16:25:08;21.10;;;13.52;;
41687;SDS011;27371;42.686;23.362;2023-02-13T16:28:02;24.80;;;14.25;;
41687;SDS011;27371;42.686;23.362;2023-02-13T16:30:40;22.58;;;13.93;;
41687;SDS011;27371;42.686;23.362;2023-02-13T16:35:40;26.98;;;14.73;;
41687;SDS011;27371;42.686;23.362;2023-02-13T16:43:37;31.70;;;17.33;;
41687;SDS011;27371;42.686;23.362;2023-02-13T16:46:15;32.60;;;18.75;;
41687;SDS011;27371;42.686;23.362;2023-02-13T16:48:43;27.40;;;18.60;;
41687;SDS011;27371;42.686;23.362;2023-02-13T17:01:14;29.00;;;18.05;;
41687;SDS011;27371;42.686;23.362;2023-02-13T17:03:42;30.35;;;18.50;;
41687;SDS011;27371;42.686;23.362;2023-02-13T17:06:08;27.05;;;18.17;;
41687;SDS011;27371;42.686;23.362;2023-02-13T17:08:34;29.45;;;18.10;;
41687;SDS011;27371;42.686;23.362;2023-02-13T17:11:02;28.20;;;17.75;;
41687;SDS011;27371;42.686;23.362;2023-02-13T17:13:32;26.50;;;17.80;;
41687;SDS011;27371;42.686;23.362;2023-02-13T17:15:58;29.58;;;19.02;;
41687;SDS011;27371;42.686;23.362;2023-02-13T17:18:24;29.33;;;20.25;;
41687;SDS011;27371;42.686;23.362;2023-02-13T17:20:52;30.52;;;18.23;;
41687;SDS011;27371;42.686;23.362;2023-02-13T17:23:19;30.08;;;18.85;;
41687;SDS011;27371;42.686;23.362;2023-02-13T17:25:48;29.38;;;18.48;;
41687;SDS011;27371;42.686;23.362;2023-02-13T17:28:17;27.67;;;18.00;;
41687;SDS011;27371;42.686;23.362;2023-02-13T17:30:45;26.50;;;18.35;;
41687;SDS011;27371;42.686;23.362;2023-02-13T17:33:21;30.33;;;19.33;;
41687;SDS011;27371;42.686;23.362;2023-02-13T17:35:48;29.92;;;18.27;;
41687;SDS011;27371;42.686;23.362;2023-02-13T17:38:14;29.20;;;18.80;;
41687;SDS011;27371;42.686;23.362;2023-02-13T17:40:41;28.27;;;18.90;;
41687;SDS011;27371;42.686;23.362;2023-02-13T17:43:09;30.23;;;18.85;;
41687;SDS011;27371;42.686;23.362;2023-02-13T17:45:35;28.60;;;17.80;;
41687;SDS011;27371;42.686;23.362;2023-02-13T17:48:01;27.80;;;18.23;;
41687;SDS011;27371;42.686;23.362;2023-02-13T17:50:27;30.92;;;18.50;;
41687;SDS011;27371;42.686;23.362;2023-02-13T17:52:54;27.83;;;17.98;;
41687;SDS011;27371;42.686;23.362;2023-02-13T17:55:24;29.45;;;18.38;;
41687;SDS011;27371;42.686;23.362;2023-02-13T17:57:52;29.85;;;18.55;;
41687;SDS011;27371;42.686;23.362;2023-02-13T18:00:20;30.92;;;18.85;;
41687;SDS011;27371;42.686;23.362;2023-02-13T18:02:46;27.58;;;18.83;;
41687;SDS011;27371;42.686;23.362;2023-02-13T18:05:13;31.65;;;19.52;;